createdAt,value
2019-01-19T00:01:44.734Z,99.90
2019-01-19T00:04:43.237Z,99.90
2019-01-19T00:07:26.807Z,99.90
2019-01-19T00:10:24.312Z,99.90
2019-01-19T00:13:22.825Z,99.90
2019-01-19T00:16:09.442Z,99.90
2019-01-19T00:18:58.876Z,99.90
2019-01-19T00:21:39.242Z,99.90
2019-01-19T00:24:31.983Z,99.90
2019-01-19T00:27:15.685Z,99.90
2019-01-19T00:29:56.034Z,99.90
2019-01-19T00:32:39.774Z,99.90
2019-01-19T00:35:17.727Z,99.90
2019-01-19T00:37:45.000Z,99.90
2019-01-19T00:40:45.073Z,99.90
2019-01-19T00:43:14.458Z,99.90
2019-01-19T00:45:48.988Z,99.90
2019-01-19T00:48:20.809Z,99.90
2019-01-19T00:50:55.213Z,99.90
2019-01-19T00:53:27.033Z,99.90
2019-01-19T00:56:21.207Z,99.90
2019-01-19T00:58:58.558Z,99.90
2019-01-19T01:01:39.111Z,99.90
2019-01-19T01:04:22.757Z,99.90
2019-01-19T01:07:08.997Z,99.90
2019-01-19T01:09:43.606Z,99.90
2019-01-19T01:12:21.876Z,99.90
2019-01-19T01:15:09.905Z,99.90
2019-01-19T01:17:40.361Z,99.90
2019-01-19T01:20:35.981Z,99.90
2019-01-19T01:23:07.794Z,99.90
2019-01-19T01:25:54.106Z,99.90
2019-01-19T01:28:34.396Z,99.90
2019-01-19T01:31:18.181Z,99.90
2019-01-19T01:34:19.788Z,99.90
2019-01-19T01:37:09.533Z,99.90
2019-01-19T01:39:47.349Z,99.90
2019-01-19T01:42:19.187Z,99.90
2019-01-19T01:44:59.572Z,99.90
2019-01-19T01:47:31.390Z,99.90
2019-01-19T01:50:08.822Z,99.90
2019-01-19T01:52:43.266Z,99.90
2019-01-19T01:55:17.777Z,99.90
2019-01-19T01:57:49.922Z,99.90
2019-01-19T02:00:24.729Z,99.90
2019-01-19T02:03:17.428Z,99.90
2019-01-19T02:05:49.194Z,99.90
2019-01-19T02:08:32.675Z,99.90
2019-01-19T02:11:16.351Z,99.90
2019-01-19T02:14:03.154Z,99.90
2019-01-19T02:16:40.472Z,99.90
2019-01-19T02:19:43.746Z,99.90
2019-01-19T02:22:16.735Z,99.90
2019-01-19T02:24:59.977Z,99.90
2019-01-19T02:27:52.300Z,99.90
2019-01-19T02:30:40.107Z,99.90
2019-01-19T02:33:32.392Z,99.90
2019-01-19T02:36:04.211Z,99.90
2019-01-19T02:39:02.887Z,99.90
2019-01-19T02:41:51.051Z,99.90
2019-01-19T02:44:35.869Z,99.90
2019-01-19T02:47:36.130Z,99.90
2019-01-19T02:50:22.699Z,99.90
2019-01-19T02:52:54.542Z,99.90
2019-01-19T02:55:38.759Z,99.90
2019-01-19T02:58:13.581Z,99.90
2019-01-19T03:04:05.687Z,99.90
2019-01-19T03:06:54.485Z,99.70
2019-01-19T03:09:29.181Z,99.70
2019-01-19T03:12:00.980Z,99.90
2019-01-19T03:14:50.743Z,99.90
2019-01-19T03:17:34.165Z,99.90
2019-01-19T03:20:22.460Z,99.90
2019-01-19T03:22:56.874Z,99.90
2019-01-19T03:25:44.918Z,99.90
2019-01-19T03:28:21.004Z,99.90
2019-01-19T03:31:07.748Z,99.90
2019-01-19T03:33:48.070Z,99.90
2019-01-19T03:36:52.814Z,99.90
2019-01-19T03:39:48.276Z,99.90
2019-01-19T03:42:29.048Z,99.90
2019-01-19T03:45:12.774Z,99.90
2019-01-19T03:47:53.324Z,99.90
2019-01-19T03:50:36.909Z,99.80
2019-01-19T03:53:23.968Z,99.90
2019-01-19T03:56:07.611Z,99.40
2019-01-19T03:58:45.020Z,99.30
2019-01-19T04:01:22.410Z,99.10
2019-01-19T04:03:57.058Z,98.90
2019-01-19T04:06:37.394Z,98.80
2019-01-19T04:09:34.535Z,99.00
2019-01-19T04:12:11.729Z,98.80
2019-01-19T04:15:05.742Z,99.00
2019-01-19T04:17:46.359Z,99.20
2019-01-19T04:20:38.821Z,99.20
2019-01-19T04:23:07.707Z,99.40
2019-01-19T04:25:42.736Z,99.40
2019-01-19T04:28:12.190Z,99.80
2019-01-19T04:30:40.866Z,99.30
2019-01-19T04:33:09.613Z,99.10
2019-01-19T04:35:38.320Z,99.20
2019-01-19T04:38:06.973Z,99.30
2019-01-19T04:40:35.794Z,99.50
2019-01-19T04:43:04.439Z,99.40
2019-01-19T04:45:33.094Z,99.50
2019-01-19T04:48:01.850Z,99.30
2019-01-19T04:50:30.463Z,99.10
2019-01-19T04:52:59.150Z,99.00
2019-01-19T04:55:27.974Z,99.10
2019-01-19T04:57:56.605Z,98.90
2019-01-19T05:00:25.251Z,98.60
2019-01-19T05:02:54.029Z,98.70
2019-01-19T05:05:22.704Z,98.60
2019-01-19T05:07:51.342Z,98.50
2019-01-19T05:10:20.046Z,98.60
2019-01-19T05:12:48.729Z,98.80
2019-01-19T05:15:18.659Z,98.80
2019-01-19T05:17:47.825Z,98.90
2019-01-19T05:20:16.508Z,98.90
2019-01-19T05:22:45.144Z,99.00
2019-01-19T05:25:14.185Z,99.00
2019-01-19T05:27:42.856Z,99.10
2019-01-19T05:30:16.818Z,99.40
2019-01-19T05:32:45.556Z,99.50
2019-01-19T05:35:17.710Z,99.60
2019-01-19T05:37:46.561Z,99.50
2019-01-19T05:40:15.243Z,99.30
2019-01-19T05:42:43.886Z,99.30
2019-01-19T05:45:14.056Z,99.20
2019-01-19T05:47:42.771Z,99.00
2019-01-19T05:50:16.926Z,99.00
2019-01-19T05:52:45.598Z,98.90
2019-01-19T05:55:14.330Z,98.50
2019-01-19T05:57:43.026Z,98.70
2019-01-19T06:00:14.636Z,98.80
2019-01-19T06:02:43.324Z,98.70
2019-01-19T06:05:11.949Z,98.50
2019-01-19T06:07:41.782Z,98.50
2019-01-19T06:10:13.206Z,98.40
2019-01-19T06:12:41.936Z,98.50
2019-01-19T06:15:13.450Z,98.70
2019-01-19T06:17:42.223Z,98.70
2019-01-19T06:20:13.240Z,98.70
2019-01-19T06:22:41.978Z,98.70
2019-01-19T06:25:16.522Z,98.70
2019-01-19T06:27:45.233Z,98.70
2019-01-19T06:30:21.555Z,98.90
2019-01-19T06:32:50.251Z,99.10
2019-01-19T06:35:18.910Z,99.10
2019-01-19T06:37:47.565Z,98.90
2019-01-19T06:40:17.809Z,99.00
2019-01-19T06:42:46.488Z,98.90
2019-01-19T06:45:22.790Z,98.90
2019-01-19T06:47:51.455Z,98.80
2019-01-19T06:50:20.087Z,98.80
2019-01-19T06:52:48.813Z,98.90
2019-01-19T06:55:24.983Z,98.90
2019-01-19T06:57:55.964Z,99.00
2019-01-19T07:00:24.647Z,99.00
2019-01-19T07:02:53.349Z,99.30
2019-01-19T07:05:22.045Z,98.90
2019-01-19T07:07:50.732Z,99.00
2019-01-19T07:10:21.928Z,98.90
2019-01-19T07:12:50.676Z,98.80
2019-01-19T07:15:20.934Z,98.60
2019-01-19T07:17:50.855Z,98.40
2019-01-19T07:20:28.238Z,98.10
2019-01-19T07:22:56.865Z,98.10
2019-01-19T07:26:33.774Z,98.00
2019-01-19T07:30:20.350Z,98.10
2019-01-19T07:31:17.510Z,98.20
2019-01-19T07:33:47.358Z,98.20
2019-01-19T07:36:16.624Z,98.20
2019-01-19T07:38:45.393Z,98.00
2019-01-19T07:41:14.046Z,98.00
2019-01-19T07:43:42.760Z,97.90
2019-01-19T07:46:13.310Z,97.90
2019-01-19T07:48:42.011Z,98.10
2019-01-19T07:51:12.379Z,98.20
2019-01-19T07:53:42.339Z,98.20
2019-01-19T07:56:11.205Z,98.30
2019-01-19T07:58:42.870Z,98.10
2019-01-19T08:01:11.666Z,98.20
2019-01-19T08:03:40.444Z,98.20
2019-01-19T08:06:09.131Z,98.20
2019-01-19T08:08:38.190Z,98.20
2019-01-19T08:11:06.893Z,98.00
2019-01-19T08:13:35.602Z,98.20
2019-01-19T08:16:04.377Z,98.00
2019-01-19T08:18:35.857Z,97.90
2019-01-19T08:21:04.527Z,98.10
2019-01-19T08:23:51.184Z,98.10
2019-01-19T08:26:35.135Z,97.70
2019-01-19T08:29:03.961Z,97.70
2019-01-19T08:31:32.628Z,97.90
2019-01-19T08:34:02.784Z,97.70
2019-01-19T08:36:31.496Z,97.80
2019-01-19T08:39:01.732Z,97.70
2019-01-19T08:41:30.474Z,97.70
2019-01-19T08:44:06.649Z,97.40
2019-01-19T08:46:35.454Z,97.40
2019-01-19T08:49:04.299Z,97.50
2019-01-19T08:51:33.008Z,97.60
2019-01-19T08:54:03.278Z,97.30
2019-01-19T08:56:33.856Z,97.20
2019-01-19T08:59:05.325Z,97.20
2019-01-19T09:01:38.635Z,96.80
2019-01-19T09:04:07.380Z,96.90
2019-01-19T09:06:37.046Z,96.90
2019-01-19T09:09:09.997Z,96.70
2019-01-19T09:11:40.779Z,96.40
2019-01-19T09:14:13.549Z,96.70
2019-01-19T09:16:42.218Z,96.60
2019-01-19T09:19:10.969Z,96.60
2019-01-19T09:21:39.709Z,96.50
2019-01-19T09:24:08.916Z,96.40
2019-01-19T09:26:37.548Z,96.70
2019-01-19T09:29:08.016Z,96.90
2019-01-19T09:31:36.702Z,96.40
2019-01-19T09:34:06.924Z,96.60
2019-01-19T09:36:37.416Z,96.50
2019-01-19T09:39:12.128Z,96.20
2019-01-19T09:41:41.007Z,96.20
2019-01-19T09:44:09.687Z,96.20
2019-01-19T09:55:13.657Z,96.10
2019-01-19T09:57:42.297Z,96.10
2019-01-19T10:00:19.595Z,96.20
2019-01-19T10:02:48.319Z,96.00
2019-01-19T10:05:19.473Z,96.00
2019-01-19T10:07:48.749Z,96.20
2019-01-19T10:10:17.578Z,96.00
2019-01-19T10:12:46.250Z,95.50
2019-01-19T10:15:16.724Z,95.50
2019-01-19T10:17:45.408Z,95.80
2019-01-19T10:20:28.477Z,95.70
2019-01-19T10:22:57.356Z,95.70
2019-01-19T10:25:26.387Z,95.60
2019-01-19T10:27:55.226Z,95.90
2019-01-19T10:30:28.685Z,95.90
2019-01-19T10:32:57.385Z,95.80
2019-01-19T10:35:26.153Z,95.50
2019-01-19T10:37:56.599Z,95.40
2019-01-19T10:40:25.051Z,95.10
2019-01-19T10:42:53.784Z,95.00
2019-01-19T10:45:27.100Z,95.60
2019-01-19T10:47:55.805Z,95.30
2019-01-19T10:50:24.441Z,95.00
2019-01-19T10:52:53.115Z,95.60
2019-01-19T10:58:12.909Z,95.30
2019-01-19T11:03:30.635Z,95.00
2019-01-19T11:05:59.324Z,94.20
2019-01-19T11:08:33.089Z,94.50
2019-01-19T11:11:01.788Z,94.50
2019-01-19T11:13:30.487Z,94.30
2019-01-19T11:16:03.096Z,94.10
2019-01-19T11:18:31.900Z,92.70
2019-01-19T11:21:00.592Z,92.00
2019-01-19T11:23:29.234Z,92.20
2019-01-19T11:25:57.973Z,92.50
2019-01-19T11:28:26.845Z,92.60
2019-01-19T11:30:56.029Z,91.50
2019-01-19T11:33:25.458Z,91.70
2019-01-19T11:35:55.046Z,91.60
2019-01-19T11:38:23.733Z,90.90
2019-01-19T11:40:53.646Z,90.70
2019-01-19T11:43:23.929Z,90.80
2019-01-19T11:45:53.066Z,88.70
2019-01-19T11:48:21.737Z,89.10
2019-01-19T11:50:51.966Z,88.70
2019-01-19T11:53:20.642Z,89.40
2019-01-19T11:55:49.356Z,89.20
2019-01-19T11:58:18.021Z,89.70
2019-01-19T12:00:46.667Z,90.00
2019-01-19T12:03:18.337Z,89.60
2019-01-19T12:05:46.991Z,89.90
2019-01-19T12:08:19.812Z,89.90
2019-01-19T12:10:46.132Z,89.60
2019-01-19T12:13:14.852Z,90.10
2019-01-19T12:15:43.526Z,90.00
2019-01-19T12:18:12.335Z,88.40
2019-01-19T12:20:42.812Z,88.90
2019-01-19T12:23:11.479Z,88.40
2019-01-19T12:25:47.365Z,88.40
2019-01-19T12:28:16.036Z,87.40
2019-01-19T12:30:44.769Z,86.90
2019-01-19T12:33:14.856Z,88.20
2019-01-19T12:35:43.558Z,86.60
2019-01-19T12:38:12.278Z,86.80
2019-01-19T12:40:41.020Z,86.40
2019-01-19T12:43:20.305Z,86.70
2019-01-19T12:45:51.424Z,86.80
2019-01-19T12:48:20.110Z,87.20
2019-01-19T12:50:48.800Z,87.50
2019-01-19T12:53:17.618Z,87.60
2019-01-19T12:55:46.292Z,87.70
2019-01-19T12:58:15.042Z,87.40
2019-01-19T13:00:43.716Z,86.80
2019-01-19T13:03:12.368Z,86.00
2019-01-19T13:05:52.846Z,85.60
2019-01-19T13:08:34.166Z,85.60
2019-01-19T13:11:19.996Z,85.30
2019-01-19T13:13:48.766Z,84.90
2019-01-19T13:16:26.665Z,85.20
2019-01-19T13:19:07.189Z,85.00
2019-01-19T13:21:58.501Z,84.00
2019-01-19T13:24:48.187Z,83.70
2019-01-19T13:27:28.890Z,83.90
2019-01-19T13:30:25.948Z,83.20
2019-01-19T13:33:10.053Z,83.20
2019-01-19T13:35:53.409Z,83.60
2019-01-19T13:38:34.270Z,84.00
2019-01-19T13:41:40.560Z,84.00
2019-01-19T13:44:27.117Z,84.10
2019-01-19T13:47:16.549Z,84.30
2019-01-19T13:50:07.573Z,84.30
2019-01-19T13:52:55.473Z,83.40
2019-01-19T13:55:36.651Z,84.10
2019-01-19T13:58:20.565Z,83.80
2019-01-19T14:01:11.673Z,84.40
2019-01-19T14:03:48.905Z,83.70
2019-01-19T14:06:29.555Z,85.10
2019-01-19T14:09:20.769Z,85.20
2019-01-19T14:12:01.415Z,84.30
2019-01-19T14:14:44.826Z,84.20
2019-01-19T14:17:19.610Z,84.80
2019-01-19T14:20:03.126Z,85.00
2019-01-19T14:22:35.702Z,85.70
2019-01-19T14:25:16.158Z,85.40
2019-01-19T14:27:56.691Z,85.30
2019-01-19T14:30:40.360Z,85.20
2019-01-19T14:33:14.768Z,85.60
2019-01-19T14:35:52.334Z,85.30
2019-01-19T14:38:39.353Z,84.40
2019-01-19T14:41:32.005Z,85.40
2019-01-19T14:44:03.842Z,85.40
2019-01-19T14:46:44.021Z,85.80
2019-01-19T14:49:30.499Z,85.90
2019-01-19T14:52:26.172Z,85.20
2019-01-19T14:54:57.991Z,85.90
2019-01-19T14:57:32.254Z,85.80
2019-01-19T15:00:18.960Z,85.70
2019-01-19T15:03:06.925Z,86.00
2019-01-19T15:05:41.338Z,85.40
2019-01-19T15:08:15.990Z,85.70
2019-01-19T15:10:53.516Z,85.40
2019-01-19T15:13:30.819Z,85.30
2019-01-19T15:16:17.817Z,86.00
2019-01-19T15:19:10.653Z,86.10
2019-01-19T15:21:44.985Z,86.40
2019-01-19T15:24:28.399Z,87.00
2019-01-19T15:27:25.744Z,87.30
2019-01-19T15:30:03.247Z,87.00
2019-01-19T15:32:55.852Z,87.00
2019-01-19T15:35:39.165Z,87.20
2019-01-19T15:38:27.444Z,87.20
2019-01-19T15:41:24.719Z,87.50
2019-01-19T15:44:02.222Z,87.20
2019-01-19T15:46:54.831Z,87.30
2019-01-19T15:49:42.967Z,87.70
2019-01-19T15:52:26.615Z,87.80
2019-01-19T15:54:58.440Z,87.80
2019-01-19T15:57:35.823Z,87.60
2019-01-19T16:00:22.706Z,87.00
2019-01-19T16:03:00.558Z,86.80
2019-01-19T16:05:41.274Z,86.50
2019-01-19T16:08:33.844Z,86.50
2019-01-19T16:11:08.771Z,86.50
2019-01-19T16:13:43.432Z,86.80
2019-01-19T16:16:17.909Z,87.30
2019-01-19T16:18:52.664Z,87.70
2019-01-19T16:21:36.195Z,88.40
2019-01-19T16:24:16.787Z,88.10
2019-01-19T16:27:12.266Z,87.80
2019-01-19T16:30:03.164Z,87.70
2019-01-19T16:32:49.934Z,88.00
2019-01-19T16:35:27.233Z,88.20
2019-01-19T16:38:21.489Z,88.40
2019-01-19T16:41:13.675Z,88.00
2019-01-19T16:43:51.298Z,87.60
2019-01-19T16:46:28.848Z,87.80
2019-01-19T16:49:13.022Z,87.70
2019-01-19T16:51:47.573Z,87.90
2019-01-19T16:54:22.632Z,87.80
2019-01-19T16:57:21.260Z,88.10
2019-01-19T16:59:56.851Z,87.80
2019-01-19T17:02:37.219Z,87.90
2019-01-19T17:05:17.841Z,87.80
2019-01-19T17:08:06.171Z,87.80
2019-01-19T17:10:52.728Z,88.40
2019-01-19T17:13:45.514Z,88.00
2019-01-19T17:16:29.174Z,87.90
2019-01-19T17:19:06.884Z,88.20
2019-01-19T17:22:45.558Z,88.30
2019-01-19T17:25:00.654Z,88.70
2019-01-19T17:28:00.118Z,89.30
2019-01-19T17:30:40.841Z,89.20
2019-01-19T17:33:27.561Z,88.80
2019-01-19T17:36:11.819Z,88.80
2019-01-19T17:39:11.294Z,88.60
2019-01-19T17:41:58.651Z,88.70
2019-01-19T17:44:40.330Z,89.00
2019-01-19T17:47:20.888Z,89.40
2019-01-19T17:50:07.322Z,89.20
2019-01-19T17:52:47.639Z,89.20
2019-01-19T17:55:43.244Z,89.20
2019-01-19T17:58:20.558Z,89.70
2019-01-19T18:00:58.085Z,89.30
2019-01-19T18:03:57.115Z,89.40
2019-01-19T18:06:28.929Z,89.80
2019-01-19T18:09:00.757Z,90.00
2019-01-19T18:11:38.329Z,89.70
2019-01-19T18:14:18.141Z,89.60
2019-01-19T18:16:50.038Z,89.40
2019-01-19T18:19:36.583Z,89.20
2019-01-19T18:22:26.196Z,89.40
2019-01-19T18:25:00.693Z,89.50
2019-01-19T18:27:48.987Z,89.00
2019-01-19T18:30:37.664Z,89.40
2019-01-19T18:33:34.867Z,89.40
2019-01-19T18:36:21.746Z,89.10
2019-01-19T18:39:06.801Z,89.00
2019-01-19T18:41:56.601Z,89.30
2019-01-19T18:44:45.115Z,88.90
2019-01-19T18:47:21.149Z,88.20
2019-01-19T18:50:07.928Z,88.10
2019-01-19T18:52:51.425Z,88.70
2019-01-19T18:55:37.843Z,87.70
2019-01-19T18:58:32.179Z,87.30
2019-01-19T19:01:23.348Z,87.30
2019-01-19T19:04:02.397Z,86.70
2019-01-19T19:06:50.806Z,87.30
2019-01-19T19:09:25.435Z,87.70
2019-01-19T19:12:12.384Z,87.60
2019-01-19T19:14:59.216Z,88.00
2019-01-19T19:17:50.816Z,87.70
2019-01-19T19:20:39.402Z,87.00
2019-01-19T19:23:13.496Z,87.40
2019-01-19T19:25:47.815Z,87.00
2019-01-19T19:28:39.519Z,87.60
2019-01-19T19:31:11.492Z,88.00
2019-01-19T19:34:02.199Z,88.70
2019-01-19T19:36:51.824Z,88.90
2019-01-19T19:39:40.403Z,88.80
2019-01-19T19:42:22.356Z,88.20
2019-01-19T19:45:10.699Z,88.40
2019-01-19T19:48:03.211Z,88.80
2019-01-19T19:50:35.033Z,89.60
2019-01-19T19:53:03.703Z,89.80
2019-01-19T19:55:31.389Z,90.00
2019-01-19T19:58:00.145Z,90.00
2019-01-19T20:00:29.059Z,89.80
2019-01-19T20:02:57.816Z,89.60
2019-01-19T20:05:26.617Z,90.30
2019-01-19T20:07:57.870Z,90.10
2019-01-19T20:10:26.568Z,89.90
2019-01-19T20:12:55.347Z,90.00
2019-01-19T20:15:24.033Z,90.40
2019-01-19T20:17:54.236Z,90.30
2019-01-19T20:20:22.970Z,90.20
2019-01-19T20:22:51.740Z,91.60
2019-01-19T20:25:30.617Z,91.40
2019-01-19T20:27:51.437Z,91.60
2019-01-19T20:30:20.068Z,91.60
2019-01-19T20:32:48.752Z,91.70
2019-01-19T20:35:18.445Z,91.60
2019-01-19T20:37:47.234Z,91.90
2019-01-19T20:40:24.075Z,92.20
2019-01-19T20:42:46.276Z,91.90
2019-01-19T20:45:15.193Z,91.80
2019-01-19T20:47:44.010Z,91.90
2019-01-19T20:50:15.929Z,91.50
2019-01-19T20:52:44.672Z,91.20
2019-01-19T20:55:13.421Z,91.70
2019-01-19T20:57:42.127Z,91.70
2019-01-19T21:00:15.302Z,91.50
2019-01-19T21:02:44.991Z,91.60
2019-01-19T21:05:13.749Z,91.70
2019-01-19T21:07:42.534Z,91.80
2019-01-19T21:10:11.215Z,92.40
2019-01-19T21:12:39.954Z,92.60
2019-01-19T21:15:11.899Z,93.00
2019-01-19T21:17:40.630Z,93.20
2019-01-19T21:20:12.683Z,93.20
2019-01-19T21:22:41.295Z,93.10
2019-01-19T21:25:11.479Z,93.60
2019-01-19T21:27:40.145Z,93.80
2019-01-19T21:30:11.621Z,93.60
2019-01-19T21:32:46.462Z,93.50
2019-01-19T21:35:15.173Z,93.60
2019-01-19T21:37:43.864Z,93.60
2019-01-19T21:40:14.003Z,93.90
2019-01-19T21:42:42.663Z,94.00
2019-01-19T21:45:17.159Z,94.00
2019-01-19T21:47:45.840Z,93.90
2019-01-19T21:50:15.565Z,93.90
2019-01-19T21:52:48.705Z,93.60
2019-01-19T21:55:17.396Z,93.80
2019-01-19T21:57:46.189Z,93.80
2019-01-19T22:00:22.401Z,94.40
2019-01-19T22:02:51.079Z,94.20
2019-01-19T22:05:21.389Z,94.40
2019-01-19T22:07:50.219Z,94.20
2019-01-19T22:10:20.561Z,94.20
2019-01-19T22:12:49.206Z,94.00
2019-01-19T22:15:18.812Z,94.20
2019-01-19T22:17:47.501Z,94.30
2019-01-19T22:20:19.661Z,94.40
2019-01-19T22:22:51.475Z,94.30
2019-01-19T22:25:20.173Z,94.40
2019-01-19T22:27:52.054Z,94.30
2019-01-19T22:30:23.169Z,94.40
2019-01-19T22:32:53.458Z,94.70
2019-01-19T22:35:26.906Z,94.70
2019-01-19T22:37:55.565Z,96.80
2019-01-19T22:40:24.386Z,94.90
2019-01-19T22:42:54.198Z,94.10
2019-01-19T22:45:22.878Z,94.70
2019-01-19T22:47:52.776Z,92.30
2019-01-19T22:50:21.530Z,92.50
2019-01-19T22:52:50.325Z,93.10
2019-01-19T22:55:19.000Z,93.70
2019-01-19T22:57:47.717Z,94.30
2019-01-19T23:00:45.126Z,94.60
2019-01-19T23:03:13.954Z,94.80
2019-01-19T23:05:42.620Z,94.90
2019-01-19T23:08:11.327Z,95.10
2019-01-19T23:10:40.022Z,95.20
2019-01-19T23:13:08.734Z,95.10
2019-01-19T23:15:37.386Z,95.10
2019-01-19T23:18:06.086Z,95.30
2019-01-19T23:20:34.772Z,95.10
2019-01-19T23:23:03.528Z,95.20
2019-01-19T23:25:32.302Z,95.20
2019-01-19T23:28:01.061Z,95.20
2019-01-19T23:30:29.742Z,95.10
2019-01-19T23:32:58.449Z,94.50
2019-01-19T23:35:27.718Z,94.50
2019-01-19T23:37:56.387Z,94.70
2019-01-19T23:40:25.144Z,95.00
2019-01-19T23:42:53.811Z,94.90
2019-01-19T23:45:22.494Z,94.60
2019-01-19T23:47:51.334Z,94.50
2019-01-19T23:50:19.983Z,94.60
2019-01-19T23:52:48.703Z,94.50
2019-01-19T23:55:17.461Z,94.50
2019-01-19T23:57:46.118Z,94.50
